sensor_id;sensor_type;location;lat;lon;timestamp;P1;durP1;ratioP1;P2;durP2;ratioP2
60847;SDS011;46681;47.696;9.140;2022-09-30T00:01:12;3.75;;;1.30;;
60847;SDS011;46681;47.696;9.140;2022-09-30T00:03:37;4.35;;;1.30;;
60847;SDS011;46681;47.696;9.140;2022-09-30T00:06:05;3.97;;;1.20;;
60847;SDS011;46681;47.696;9.140;2022-09-30T00:08:32;3.47;;;1.35;;
60847;SDS011;46681;47.696;9.140;2022-09-30T00:11:05;4.57;;;1.40;;
60847;SDS011;46681;47.696;9.140;2022-09-30T00:13:33;4.07;;;1.27;;
60847;SDS011;46681;47.696;9.140;2022-09-30T00:16:07;3.33;;;1.20;;
60847;SDS011;46681;47.696;9.140;2022-09-30T00:18:36;2.83;;;1.20;;
60847;SDS011;46681;47.696;9.140;2022-09-30T00:21:06;2.78;;;1.20;;
60847;SDS011;46681;47.696;9.140;2022-09-30T00:23:36;3.85;;;1.20;;
60847;SDS011;46681;47.696;9.140;2022-09-30T00:26:09;2.60;;;1.27;;
60847;SDS011;46681;47.696;9.140;2022-09-30T00:28:40;2.05;;;1.10;;
60847;SDS011;46681;47.696;9.140;2022-09-30T00:31:09;3.30;;;1.30;;
60847;SDS011;46681;47.696;9.140;2022-09-30T00:33:36;2.92;;;1.20;;
60847;SDS011;46681;47.696;9.140;2022-09-30T00:36:02;3.63;;;1.30;;
60847;SDS011;46681;47.696;9.140;2022-09-30T00:38:32;3.53;;;1.27;;
60847;SDS011;46681;47.696;9.140;2022-09-30T00:41:01;3.92;;;1.30;;
60847;SDS011;46681;47.696;9.140;2022-09-30T00:43:39;3.70;;;1.30;;
60847;SDS011;46681;47.696;9.140;2022-09-30T00:46:30;3.40;;;1.30;;
60847;SDS011;46681;47.696;9.140;2022-09-30T00:48:58;3.42;;;1.27;;
60847;SDS011;46681;47.696;9.140;2022-09-30T00:51:35;3.38;;;1.30;;
60847;SDS011;46681;47.696;9.140;2022-09-30T00:54:06;2.85;;;1.20;;
60847;SDS011;46681;47.696;9.140;2022-09-30T00:56:39;2.42;;;1.10;;
60847;SDS011;46681;47.696;9.140;2022-09-30T00:59:13;2.63;;;1.20;;
60847;SDS011;46681;47.696;9.140;2022-09-30T01:01:55;3.70;;;1.35;;
60847;SDS011;46681;47.696;9.140;2022-09-30T01:04:21;4.20;;;1.40;;
60847;SDS011;46681;47.696;9.140;2022-09-30T01:06:58;3.55;;;1.23;;
60847;SDS011;46681;47.696;9.140;2022-09-30T01:09:28;3.72;;;1.35;;
60847;SDS011;46681;47.696;9.140;2022-09-30T01:12:02;2.47;;;1.20;;
60847;SDS011;46681;47.696;9.140;2022-09-30T01:14:41;4.13;;;1.38;;
60847;SDS011;46681;47.696;9.140;2022-09-30T01:17:31;3.15;;;1.25;;
60847;SDS011;46681;47.696;9.140;2022-09-30T01:38:06;2.42;;;1.20;;
60847;SDS011;46681;47.696;9.140;2022-09-30T01:43:43;3.17;;;1.20;;
60847;SDS011;46681;47.696;9.140;2022-09-30T01:46:36;3.17;;;1.20;;
60847;SDS011;46681;47.696;9.140;2022-09-30T01:51:59;3.13;;;1.15;;
60847;SDS011;46681;47.696;9.140;2022-09-30T01:57:27;5.00;;;1.40;;
60847;SDS011;46681;47.696;9.140;2022-09-30T02:00:10;2.63;;;1.20;;
60847;SDS011;46681;47.696;9.140;2022-09-30T02:02:42;2.83;;;1.20;;
60847;SDS011;46681;47.696;9.140;2022-09-30T02:08:07;2.08;;;1.10;;
60847;SDS011;46681;47.696;9.140;2022-09-30T02:10:52;2.60;;;1.20;;
60847;SDS011;46681;47.696;9.140;2022-09-30T02:13:50;2.60;;;1.10;;
60847;SDS011;46681;47.696;9.140;2022-09-30T02:16:42;3.95;;;1.20;;
60847;SDS011;46681;47.696;9.140;2022-09-30T02:19:32;3.92;;;1.10;;
60847;SDS011;46681;47.696;9.140;2022-09-30T02:22:13;2.33;;;1.08;;
60847;SDS011;46681;47.696;9.140;2022-09-30T02:24:44;4.10;;;1.20;;
60847;SDS011;46681;47.696;9.140;2022-09-30T02:27:20;2.63;;;1.20;;
60847;SDS011;46681;47.696;9.140;2022-09-30T02:29:52;2.03;;;0.90;;
60847;SDS011;46681;47.696;9.140;2022-09-30T02:32:46;1.77;;;1.10;;
60847;SDS011;46681;47.696;9.140;2022-09-30T02:35:37;2.58;;;1.13;;
60847;SDS011;46681;47.696;9.140;2022-09-30T02:38:19;2.83;;;1.10;;
60847;SDS011;46681;47.696;9.140;2022-09-30T02:40:55;2.42;;;1.08;;
60847;SDS011;46681;47.696;9.140;2022-09-30T02:43:36;3.25;;;1.20;;
60847;SDS011;46681;47.696;9.140;2022-09-30T02:46:09;4.65;;;1.35;;
60847;SDS011;46681;47.696;9.140;2022-09-30T02:48:48;2.10;;;0.90;;
60847;SDS011;46681;47.696;9.140;2022-09-30T02:51:42;2.15;;;1.08;;
60847;SDS011;46681;47.696;9.140;2022-09-30T02:59:31;4.38;;;1.10;;
60847;SDS011;46681;47.696;9.140;2022-09-30T03:01:57;3.40;;;1.10;;
60847;SDS011;46681;47.696;9.140;2022-09-30T03:04:27;3.15;;;1.10;;
60847;SDS011;46681;47.696;9.140;2022-09-30T03:06:57;2.50;;;1.15;;
60847;SDS011;46681;47.696;9.140;2022-09-30T03:09:25;2.13;;;1.10;;
60847;SDS011;46681;47.696;9.140;2022-09-30T03:11:54;3.45;;;1.20;;
60847;SDS011;46681;47.696;9.140;2022-09-30T03:17:41;2.83;;;0.90;;
60847;SDS011;46681;47.696;9.140;2022-09-30T03:20:35;3.60;;;1.10;;
60847;SDS011;46681;47.696;9.140;2022-09-30T03:28:40;5.72;;;1.10;;
60847;SDS011;46681;47.696;9.140;2022-09-30T03:36:35;2.35;;;1.08;;
60847;SDS011;46681;47.696;9.140;2022-09-30T03:39:21;2.25;;;1.05;;
60847;SDS011;46681;47.696;9.140;2022-09-30T03:47:21;2.67;;;1.00;;
60847;SDS011;46681;47.696;9.140;2022-09-30T03:49:54;2.65;;;1.00;;
60847;SDS011;46681;47.696;9.140;2022-09-30T03:52:24;4.30;;;1.20;;
60847;SDS011;46681;47.696;9.140;2022-09-30T03:54:57;2.67;;;1.20;;
60847;SDS011;46681;47.696;9.140;2022-09-30T03:57:25;4.57;;;1.20;;
60847;SDS011;46681;47.696;9.140;2022-09-30T03:59:57;2.38;;;1.20;;
60847;SDS011;46681;47.696;9.140;2022-09-30T04:02:23;4.85;;;1.15;;
60847;SDS011;46681;47.696;9.140;2022-09-30T04:04:50;2.70;;;1.10;;
60847;SDS011;46681;47.696;9.140;2022-09-30T04:07:15;2.63;;;1.02;;
60847;SDS011;46681;47.696;9.140;2022-09-30T04:09:44;1.65;;;0.90;;
60847;SDS011;46681;47.696;9.140;2022-09-30T04:12:10;2.67;;;1.00;;
60847;SDS011;46681;47.696;9.140;2022-09-30T04:14:42;3.53;;;1.05;;
60847;SDS011;46681;47.696;9.140;2022-09-30T04:17:10;2.97;;;1.10;;
60847;SDS011;46681;47.696;9.140;2022-09-30T04:19:39;3.15;;;1.15;;
60847;SDS011;46681;47.696;9.140;2022-09-30T04:22:07;2.58;;;1.05;;
60847;SDS011;46681;47.696;9.140;2022-09-30T04:24:34;2.33;;;1.10;;
60847;SDS011;46681;47.696;9.140;2022-09-30T04:27:04;2.30;;;1.10;;
60847;SDS011;46681;47.696;9.140;2022-09-30T04:29:31;3.20;;;1.10;;
60847;SDS011;46681;47.696;9.140;2022-09-30T04:31:57;4.25;;;1.27;;
60847;SDS011;46681;47.696;9.140;2022-09-30T04:34:22;4.97;;;1.30;;
60847;SDS011;46681;47.696;9.140;2022-09-30T04:36:52;3.60;;;1.20;;
60847;SDS011;46681;47.696;9.140;2022-09-30T04:39:18;5.57;;;1.50;;
60847;SDS011;46681;47.696;9.140;2022-09-30T04:41:49;3.65;;;1.33;;
60847;SDS011;46681;47.696;9.140;2022-09-30T04:44:15;4.13;;;1.40;;
60847;SDS011;46681;47.696;9.140;2022-09-30T04:46:41;3.25;;;1.40;;
60847;SDS011;46681;47.696;9.140;2022-09-30T04:49:12;4.65;;;1.55;;
60847;SDS011;46681;47.696;9.140;2022-09-30T04:51:39;4.22;;;1.58;;
60847;SDS011;46681;47.696;9.140;2022-09-30T04:54:08;4.82;;;1.70;;
60847;SDS011;46681;47.696;9.140;2022-09-30T04:56:33;4.97;;;1.60;;
60847;SDS011;46681;47.696;9.140;2022-09-30T04:59:01;8.10;;;1.80;;
60847;SDS011;46681;47.696;9.140;2022-09-30T05:01:31;5.05;;;1.58;;
60847;SDS011;46681;47.696;9.140;2022-09-30T05:03:58;4.63;;;1.58;;
60847;SDS011;46681;47.696;9.140;2022-09-30T05:06:23;5.43;;;1.58;;
60847;SDS011;46681;47.696;9.140;2022-09-30T05:08:50;5.97;;;1.75;;
60847;SDS011;46681;47.696;9.140;2022-09-30T05:11:18;4.53;;;1.60;;
60847;SDS011;46681;47.696;9.140;2022-09-30T05:13:55;4.80;;;1.60;;
60847;SDS011;46681;47.696;9.140;2022-09-30T05:16:25;6.45;;;1.73;;
60847;SDS011;46681;47.696;9.140;2022-09-30T05:18:51;7.18;;;2.00;;
60847;SDS011;46681;47.696;9.140;2022-09-30T05:21:23;5.22;;;1.73;;
60847;SDS011;46681;47.696;9.140;2022-09-30T05:23:53;4.97;;;1.60;;
60847;SDS011;46681;47.696;9.140;2022-09-30T05:26:18;4.97;;;1.50;;
60847;SDS011;46681;47.696;9.140;2022-09-30T05:28:45;5.78;;;1.70;;
60847;SDS011;46681;47.696;9.140;2022-09-30T05:31:11;4.80;;;1.65;;
60847;SDS011;46681;47.696;9.140;2022-09-30T05:33:44;5.35;;;1.40;;
60847;SDS011;46681;47.696;9.140;2022-09-30T05:36:14;6.32;;;1.73;;
60847;SDS011;46681;47.696;9.140;2022-09-30T05:38:49;5.65;;;1.73;;
60847;SDS011;46681;47.696;9.140;2022-09-30T05:41:17;6.32;;;1.58;;
60847;SDS011;46681;47.696;9.140;2022-09-30T05:43:49;4.13;;;1.40;;
60847;SDS011;46681;47.696;9.140;2022-09-30T05:46:16;4.65;;;1.50;;
60847;SDS011;46681;47.696;9.140;2022-09-30T05:48:45;3.20;;;1.25;;
60847;SDS011;46681;47.696;9.140;2022-09-30T05:51:13;6.25;;;1.50;;
60847;SDS011;46681;47.696;9.140;2022-09-30T05:53:39;3.38;;;1.30;;
60847;SDS011;46681;47.696;9.140;2022-09-30T05:56:06;4.72;;;1.55;;
60847;SDS011;46681;47.696;9.140;2022-09-30T05:58:39;5.53;;;1.70;;
60847;SDS011;46681;47.696;9.140;2022-09-30T06:01:12;5.30;;;1.58;;
60847;SDS011;46681;47.696;9.140;2022-09-30T06:03:41;3.78;;;1.40;;
60847;SDS011;46681;47.696;9.140;2022-09-30T06:06:11;5.47;;;1.55;;
60847;SDS011;46681;47.696;9.140;2022-09-30T06:08:38;5.70;;;1.70;;
60847;SDS011;46681;47.696;9.140;2022-09-30T06:11:11;4.68;;;1.50;;
60847;SDS011;46681;47.696;9.140;2022-09-30T06:13:43;4.68;;;1.45;;
60847;SDS011;46681;47.696;9.140;2022-09-30T06:16:13;4.28;;;1.60;;
60847;SDS011;46681;47.696;9.140;2022-09-30T06:18:43;5.03;;;1.60;;
60847;SDS011;46681;47.696;9.140;2022-09-30T06:21:13;4.93;;;1.50;;
60847;SDS011;46681;47.696;9.140;2022-09-30T06:23:41;4.35;;;1.60;;
60847;SDS011;46681;47.696;9.140;2022-09-30T06:26:18;5.22;;;1.60;;
60847;SDS011;46681;47.696;9.140;2022-09-30T06:28:45;6.00;;;1.58;;
60847;SDS011;46681;47.696;9.140;2022-09-30T06:31:12;5.20;;;1.50;;
60847;SDS011;46681;47.696;9.140;2022-09-30T06:33:40;5.03;;;1.50;;
60847;SDS011;46681;47.696;9.140;2022-09-30T06:36:11;5.50;;;1.73;;
60847;SDS011;46681;47.696;9.140;2022-09-30T06:38:39;4.07;;;1.40;;
60847;SDS011;46681;47.696;9.140;2022-09-30T06:41:04;5.57;;;1.55;;
60847;SDS011;46681;47.696;9.140;2022-09-30T06:43:32;5.05;;;1.60;;
60847;SDS011;46681;47.696;9.140;2022-09-30T06:46:00;4.43;;;1.40;;
60847;SDS011;46681;47.696;9.140;2022-09-30T06:48:27;4.72;;;1.70;;
60847;SDS011;46681;47.696;9.140;2022-09-30T06:50:55;4.22;;;1.40;;
60847;SDS011;46681;47.696;9.140;2022-09-30T06:53:23;4.15;;;1.45;;
60847;SDS011;46681;47.696;9.140;2022-09-30T06:55:59;4.70;;;1.40;;
60847;SDS011;46681;47.696;9.140;2022-09-30T06:58:37;5.18;;;1.40;;
60847;SDS011;46681;47.696;9.140;2022-09-30T07:01:05;3.35;;;1.40;;
60847;SDS011;46681;47.696;9.140;2022-09-30T07:03:32;4.90;;;1.45;;
60847;SDS011;46681;47.696;9.140;2022-09-30T07:06:02;5.93;;;1.55;;
60847;SDS011;46681;47.696;9.140;2022-09-30T07:08:33;4.63;;;1.40;;
60847;SDS011;46681;47.696;9.140;2022-09-30T07:11:05;6.57;;;1.60;;
60847;SDS011;46681;47.696;9.140;2022-09-30T07:13:43;5.45;;;1.60;;
60847;SDS011;46681;47.696;9.140;2022-09-30T07:16:10;6.47;;;1.73;;
60847;SDS011;46681;47.696;9.140;2022-09-30T07:18:38;4.63;;;1.60;;
60847;SDS011;46681;47.696;9.140;2022-09-30T07:21:05;4.40;;;1.50;;
60847;SDS011;46681;47.696;9.140;2022-09-30T07:23:30;5.07;;;1.50;;
60847;SDS011;46681;47.696;9.140;2022-09-30T07:25:57;6.63;;;1.70;;
60847;SDS011;46681;47.696;9.140;2022-09-30T07:28:26;5.45;;;1.50;;
60847;SDS011;46681;47.696;9.140;2022-09-30T07:30:56;4.68;;;1.67;;
60847;SDS011;46681;47.696;9.140;2022-09-30T07:33:28;5.28;;;1.50;;
60847;SDS011;46681;47.696;9.140;2022-09-30T07:35:55;4.80;;;1.60;;
60847;SDS011;46681;47.696;9.140;2022-09-30T07:38:29;5.47;;;1.63;;
60847;SDS011;46681;47.696;9.140;2022-09-30T07:40:56;5.68;;;1.80;;
60847;SDS011;46681;47.696;9.140;2022-09-30T07:43:29;3.72;;;1.40;;
60847;SDS011;46681;47.696;9.140;2022-09-30T07:45:57;4.63;;;1.50;;
60847;SDS011;46681;47.696;9.140;2022-09-30T07:48:33;5.50;;;1.70;;
60847;SDS011;46681;47.696;9.140;2022-09-30T07:51:03;5.57;;;1.70;;
60847;SDS011;46681;47.696;9.140;2022-09-30T07:53:33;6.80;;;1.60;;
60847;SDS011;46681;47.696;9.140;2022-09-30T07:56:03;5.00;;;1.63;;
60847;SDS011;46681;47.696;9.140;2022-09-30T07:58:34;6.82;;;1.95;;
60847;SDS011;46681;47.696;9.140;2022-09-30T08:01:04;4.65;;;1.50;;
60847;SDS011;46681;47.696;9.140;2022-09-30T08:03:32;5.88;;;1.77;;
60847;SDS011;46681;47.696;9.140;2022-09-30T08:06:08;5.20;;;1.60;;
60847;SDS011;46681;47.696;9.140;2022-09-30T08:08:49;6.32;;;1.70;;
60847;SDS011;46681;47.696;9.140;2022-09-30T08:11:18;5.95;;;1.73;;
60847;SDS011;46681;47.696;9.140;2022-09-30T08:13:44;6.22;;;1.70;;
60847;SDS011;46681;47.696;9.140;2022-09-30T08:16:15;6.80;;;1.70;;
60847;SDS011;46681;47.696;9.140;2022-09-30T08:18:41;4.82;;;1.70;;
60847;SDS011;46681;47.696;9.140;2022-09-30T08:21:08;4.80;;;1.60;;
60847;SDS011;46681;47.696;9.140;2022-09-30T08:23:35;5.75;;;1.70;;
60847;SDS011;46681;47.696;9.140;2022-09-30T08:26:05;5.47;;;1.67;;
60847;SDS011;46681;47.696;9.140;2022-09-30T08:28:35;4.55;;;1.60;;
60847;SDS011;46681;47.696;9.140;2022-09-30T08:31:05;6.40;;;2.05;;
60847;SDS011;46681;47.696;9.140;2022-09-30T08:33:35;4.43;;;1.58;;
60847;SDS011;46681;47.696;9.140;2022-09-30T08:36:07;4.63;;;1.60;;
60847;SDS011;46681;47.696;9.140;2022-09-30T08:38:36;5.15;;;1.63;;
60847;SDS011;46681;47.696;9.140;2022-09-30T08:46:59;5.70;;;1.50;;
60847;SDS011;46681;47.696;9.140;2022-09-30T08:49:44;5.00;;;1.60;;
60847;SDS011;46681;47.696;9.140;2022-09-30T08:52:37;4.80;;;1.65;;
60847;SDS011;46681;47.696;9.140;2022-09-30T08:55:15;5.20;;;1.50;;
60847;SDS011;46681;47.696;9.140;2022-09-30T08:57:45;4.82;;;1.58;;
60847;SDS011;46681;47.696;9.140;2022-09-30T09:00:15;5.32;;;1.63;;
60847;SDS011;46681;47.696;9.140;2022-09-30T09:02:49;4.30;;;1.45;;
60847;SDS011;46681;47.696;9.140;2022-09-30T09:05:48;4.75;;;1.55;;
60847;SDS011;46681;47.696;9.140;2022-09-30T09:11:09;5.07;;;1.60;;
60847;SDS011;46681;47.696;9.140;2022-09-30T09:24:29;3.78;;;1.48;;
60847;SDS011;46681;47.696;9.140;2022-09-30T09:32:24;4.78;;;1.45;;
60847;SDS011;46681;47.696;9.140;2022-09-30T09:37:43;5.80;;;1.50;;
60847;SDS011;46681;47.696;9.140;2022-09-30T09:40:21;5.55;;;1.70;;
60847;SDS011;46681;47.696;9.140;2022-09-30T09:45:37;3.88;;;1.48;;
60847;SDS011;46681;47.696;9.140;2022-09-30T09:48:34;4.40;;;1.50;;
60847;SDS011;46681;47.696;9.140;2022-09-30T09:51:11;5.22;;;1.70;;
60847;SDS011;46681;47.696;9.140;2022-09-30T09:53:56;5.43;;;1.70;;
60847;SDS011;46681;47.696;9.140;2022-09-30T09:56:28;3.72;;;1.42;;
60847;SDS011;46681;47.696;9.140;2022-09-30T09:59:12;4.15;;;1.40;;
60847;SDS011;46681;47.696;9.140;2022-09-30T10:01:47;3.90;;;1.50;;
60847;SDS011;46681;47.696;9.140;2022-09-30T10:04:23;4.30;;;1.38;;
60847;SDS011;46681;47.696;9.140;2022-09-30T10:06:58;6.18;;;1.67;;
60847;SDS011;46681;47.696;9.140;2022-09-30T10:09:45;4.53;;;1.50;;
60847;SDS011;46681;47.696;9.140;2022-09-30T10:14:58;4.85;;;1.50;;
60847;SDS011;46681;47.696;9.140;2022-09-30T10:17:33;4.53;;;1.60;;
60847;SDS011;46681;47.696;9.140;2022-09-30T10:26:17;5.13;;;1.80;;
60847;SDS011;46681;47.696;9.140;2022-09-30T10:31:30;4.25;;;1.50;;
60847;SDS011;46681;47.696;9.140;2022-09-30T10:39:40;5.85;;;1.52;;
60847;SDS011;46681;47.696;9.140;2022-09-30T10:42:32;4.68;;;1.60;;
60847;SDS011;46681;47.696;9.140;2022-09-30T10:45:05;5.18;;;1.50;;
60847;SDS011;46681;47.696;9.140;2022-09-30T10:47:51;4.43;;;1.60;;
60847;SDS011;46681;47.696;9.140;2022-09-30T10:50:22;5.13;;;1.60;;
60847;SDS011;46681;47.696;9.140;2022-09-30T10:52:57;5.25;;;1.52;;
60847;SDS011;46681;47.696;9.140;2022-09-30T11:00:49;5.20;;;1.50;;
60847;SDS011;46681;47.696;9.140;2022-09-30T11:06:39;5.15;;;1.40;;
60847;SDS011;46681;47.696;9.140;2022-09-30T11:12:04;2.47;;;1.17;;
60847;SDS011;46681;47.696;9.140;2022-09-30T11:15:03;2.97;;;1.20;;
60847;SDS011;46681;47.696;9.140;2022-09-30T11:18:06;3.10;;;1.10;;
60847;SDS011;46681;47.696;9.140;2022-09-30T11:20:56;4.97;;;1.30;;
60847;SDS011;46681;47.696;9.140;2022-09-30T11:23:47;2.95;;;1.10;;
60847;SDS011;46681;47.696;9.140;2022-09-30T11:29:26;4.00;;;1.20;;
60847;SDS011;46681;47.696;9.140;2022-09-30T11:35:39;2.63;;;1.15;;
60847;SDS011;46681;47.696;9.140;2022-09-30T11:38:40;2.53;;;1.10;;
60847;SDS011;46681;47.696;9.140;2022-09-30T11:41:38;3.35;;;1.15;;
60847;SDS011;46681;47.696;9.140;2022-09-30T11:44:34;2.20;;;0.95;;
60847;SDS011;46681;47.696;9.140;2022-09-30T11:52:47;2.97;;;0.98;;
60847;SDS011;46681;47.696;9.140;2022-09-30T11:56:01;2.50;;;1.20;;
60847;SDS011;46681;47.696;9.140;2022-09-30T11:58:52;2.30;;;1.00;;
60847;SDS011;46681;47.696;9.140;2022-09-30T12:01:36;3.30;;;1.00;;
60847;SDS011;46681;47.696;9.140;2022-09-30T12:07:08;2.17;;;1.00;;
60847;SDS011;46681;47.696;9.140;2022-09-30T12:10:00;2.70;;;0.90;;
60847;SDS011;46681;47.696;9.140;2022-09-30T12:12:52;2.25;;;1.00;;
60847;SDS011;46681;47.696;9.140;2022-09-30T12:15:46;2.72;;;0.98;;
60847;SDS011;46681;47.696;9.140;2022-09-30T12:21:00;2.53;;;0.93;;
60847;SDS011;46681;47.696;9.140;2022-09-30T12:26:51;3.97;;;1.27;;
60847;SDS011;46681;47.696;9.140;2022-09-30T12:32:20;1.88;;;0.90;;
60847;SDS011;46681;47.696;9.140;2022-09-30T12:35:55;3.30;;;0.98;;
60847;SDS011;46681;47.696;9.140;2022-09-30T12:49:59;4.38;;;1.20;;
60847;SDS011;46681;47.696;9.140;2022-09-30T12:52:55;3.75;;;1.10;;
60847;SDS011;46681;47.696;9.140;2022-09-30T12:55:39;3.67;;;1.05;;
60847;SDS011;46681;47.696;9.140;2022-09-30T13:01:24;2.53;;;1.10;;
60847;SDS011;46681;47.696;9.140;2022-09-30T13:09:32;3.40;;;1.05;;
60847;SDS011;46681;47.696;9.140;2022-09-30T13:12:38;3.85;;;0.98;;
60847;SDS011;46681;47.696;9.140;2022-09-30T13:15:41;4.00;;;1.10;;
60847;SDS011;46681;47.696;9.140;2022-09-30T13:32:29;3.10;;;1.05;;
60847;SDS011;46681;47.696;9.140;2022-09-30T13:34:32;2.85;;;0.95;;
60847;SDS011;46681;47.696;9.140;2022-09-30T13:37:32;3.15;;;1.05;;
60847;SDS011;46681;47.696;9.140;2022-09-30T13:40:01;3.88;;;1.05;;
60847;SDS011;46681;47.696;9.140;2022-09-30T13:42:56;4.07;;;1.10;;
60847;SDS011;46681;47.696;9.140;2022-09-30T13:45:28;4.57;;;1.35;;
60847;SDS011;46681;47.696;9.140;2022-09-30T13:48:11;2.05;;;0.90;;
60847;SDS011;46681;47.696;9.140;2022-09-30T13:50:48;2.87;;;1.00;;
60847;SDS011;46681;47.696;9.140;2022-09-30T13:53:27;3.35;;;1.00;;
60847;SDS011;46681;47.696;9.140;2022-09-30T13:56:03;3.40;;;1.00;;
60847;SDS011;46681;47.696;9.140;2022-09-30T14:17:45;3.72;;;1.27;;
60847;SDS011;46681;47.696;9.140;2022-09-30T14:23:21;3.50;;;1.10;;
60847;SDS011;46681;47.696;9.140;2022-09-30T14:31:24;4.63;;;1.30;;
60847;SDS011;46681;47.696;9.140;2022-09-30T14:33:57;3.70;;;1.25;;
60847;SDS011;46681;47.696;9.140;2022-09-30T14:36:23;2.37;;;1.10;;
60847;SDS011;46681;47.696;9.140;2022-09-30T14:39:05;3.15;;;1.15;;
60847;SDS011;46681;47.696;9.140;2022-09-30T14:41:57;3.83;;;1.30;;
60847;SDS011;46681;47.696;9.140;2022-09-30T14:44:41;4.88;;;1.20;;
60847;SDS011;46681;47.696;9.140;2022-09-30T14:47:26;4.70;;;1.17;;
60847;SDS011;46681;47.696;9.140;2022-09-30T14:50:15;2.63;;;1.10;;
60847;SDS011;46681;47.696;9.140;2022-09-30T14:53:03;3.17;;;1.10;;
60847;SDS011;46681;47.696;9.140;2022-09-30T14:55:31;3.63;;;1.20;;
60847;SDS011;46681;47.696;9.140;2022-09-30T15:01:01;4.07;;;1.30;;
60847;SDS011;46681;47.696;9.140;2022-09-30T15:03:53;1.80;;;1.10;;
60847;SDS011;46681;47.696;9.140;2022-09-30T15:06:25;2.70;;;1.20;;
60847;SDS011;46681;47.696;9.140;2022-09-30T15:09:13;2.15;;;1.00;;
60847;SDS011;46681;47.696;9.140;2022-09-30T15:11:42;2.72;;;1.20;;
60847;SDS011;46681;47.696;9.140;2022-09-30T15:14:17;2.03;;;1.00;;
60847;SDS011;46681;47.696;9.140;2022-09-30T15:16:53;2.50;;;1.00;;
60847;SDS011;46681;47.696;9.140;2022-09-30T15:19:25;2.20;;;1.10;;
60847;SDS011;46681;47.696;9.140;2022-09-30T15:22:00;3.28;;;1.30;;
60847;SDS011;46681;47.696;9.140;2022-09-30T15:24:31;3.50;;;1.40;;
60847;SDS011;46681;47.696;9.140;2022-09-30T15:27:04;3.17;;;1.30;;
60847;SDS011;46681;47.696;9.140;2022-09-30T15:29:34;3.95;;;1.30;;
60847;SDS011;46681;47.696;9.140;2022-09-30T15:32:02;4.65;;;1.40;;
60847;SDS011;46681;47.696;9.140;2022-09-30T15:34:47;2.67;;;1.30;;
60847;SDS011;46681;47.696;9.140;2022-09-30T15:37:23;3.88;;;1.30;;
60847;SDS011;46681;47.696;9.140;2022-09-30T15:39:56;4.13;;;1.30;;
60847;SDS011;46681;47.696;9.140;2022-09-30T15:42:35;3.83;;;1.40;;
60847;SDS011;46681;47.696;9.140;2022-09-30T15:50:50;4.30;;;1.30;;
60847;SDS011;46681;47.696;9.140;2022-09-30T15:53:30;4.22;;;1.30;;
60847;SDS011;46681;47.696;9.140;2022-09-30T16:06:43;3.55;;;1.30;;
60847;SDS011;46681;47.696;9.140;2022-09-30T16:09:24;4.38;;;1.35;;
60847;SDS011;46681;47.696;9.140;2022-09-30T16:11:59;2.65;;;1.20;;
60847;SDS011;46681;47.696;9.140;2022-09-30T16:14:39;3.85;;;1.20;;
60847;SDS011;46681;47.696;9.140;2022-09-30T16:27:53;4.22;;;1.30;;
60847;SDS011;46681;47.696;9.140;2022-09-30T16:30:32;3.28;;;1.30;;
60847;SDS011;46681;47.696;9.140;2022-09-30T16:33:19;3.10;;;1.20;;
60847;SDS011;46681;47.696;9.140;2022-09-30T16:35:50;4.05;;;1.40;;
60847;SDS011;46681;47.696;9.140;2022-09-30T16:38:31;3.88;;;1.30;;
60847;SDS011;46681;47.696;9.140;2022-09-30T16:41:04;3.60;;;1.30;;
60847;SDS011;46681;47.696;9.140;2022-09-30T16:43:39;3.58;;;1.30;;
60847;SDS011;46681;47.696;9.140;2022-09-30T16:46:10;3.88;;;1.35;;
60847;SDS011;46681;47.696;9.140;2022-09-30T16:48:56;2.65;;;1.10;;
60847;SDS011;46681;47.696;9.140;2022-09-30T16:51:21;3.63;;;1.30;;
60847;SDS011;46681;47.696;9.140;2022-09-30T16:53:49;4.78;;;1.40;;
60847;SDS011;46681;47.696;9.140;2022-09-30T16:56:17;5.07;;;1.50;;
60847;SDS011;46681;47.696;9.140;2022-09-30T16:58:45;4.50;;;1.30;;
60847;SDS011;46681;47.696;9.140;2022-09-30T17:01:32;3.72;;;1.30;;
60847;SDS011;46681;47.696;9.140;2022-09-30T17:04:28;3.72;;;1.40;;
60847;SDS011;46681;47.696;9.140;2022-09-30T17:06:57;2.72;;;1.20;;
60847;SDS011;46681;47.696;9.140;2022-09-30T17:09:54;3.13;;;1.30;;
60847;SDS011;46681;47.696;9.140;2022-09-30T17:12:26;5.43;;;1.50;;
60847;SDS011;46681;47.696;9.140;2022-09-30T17:14:57;4.88;;;1.70;;
60847;SDS011;46681;47.696;9.140;2022-09-30T17:17:31;3.25;;;1.30;;
60847;SDS011;46681;47.696;9.140;2022-09-30T17:19:57;2.95;;;1.27;;
60847;SDS011;46681;47.696;9.140;2022-09-30T17:22:27;3.70;;;1.30;;
60847;SDS011;46681;47.696;9.140;2022-09-30T17:24:58;4.03;;;1.48;;
60847;SDS011;46681;47.696;9.140;2022-09-30T17:27:33;4.68;;;1.55;;
60847;SDS011;46681;47.696;9.140;2022-09-30T17:30:08;4.07;;;1.30;;
60847;SDS011;46681;47.696;9.140;2022-09-30T17:32:37;5.97;;;1.50;;
60847;SDS011;46681;47.696;9.140;2022-09-30T17:35:09;4.57;;;1.30;;
60847;SDS011;46681;47.696;9.140;2022-09-30T17:37:42;3.78;;;1.38;;
60847;SDS011;46681;47.696;9.140;2022-09-30T17:40:13;7.20;;;1.55;;
60847;SDS011;46681;47.696;9.140;2022-09-30T17:42:43;5.32;;;1.40;;
60847;SDS011;46681;47.696;9.140;2022-09-30T17:45:11;4.30;;;1.42;;
60847;SDS011;46681;47.696;9.140;2022-09-30T17:47:36;3.88;;;1.40;;
60847;SDS011;46681;47.696;9.140;2022-09-30T17:50:03;4.88;;;1.50;;
60847;SDS011;46681;47.696;9.140;2022-09-30T17:52:33;4.13;;;1.40;;
60847;SDS011;46681;47.696;9.140;2022-09-30T17:55:07;4.55;;;1.40;;
60847;SDS011;46681;47.696;9.140;2022-09-30T17:57:44;4.18;;;1.55;;
60847;SDS011;46681;47.696;9.140;2022-09-30T18:00:27;4.60;;;1.33;;
60847;SDS011;46681;47.696;9.140;2022-09-30T18:03:00;3.67;;;1.30;;
60847;SDS011;46681;47.696;9.140;2022-09-30T18:05:34;3.08;;;1.30;;
60847;SDS011;46681;47.696;9.140;2022-09-30T18:08:07;3.05;;;1.30;;
60847;SDS011;46681;47.696;9.140;2022-09-30T18:10:38;4.40;;;1.40;;
60847;SDS011;46681;47.696;9.140;2022-09-30T18:13:16;4.30;;;1.20;;
60847;SDS011;46681;47.696;9.140;2022-09-30T18:15:42;3.35;;;1.30;;
60847;SDS011;46681;47.696;9.140;2022-09-30T18:18:12;4.47;;;1.45;;
60847;SDS011;46681;47.696;9.140;2022-09-30T18:20:47;3.42;;;1.40;;
60847;SDS011;46681;47.696;9.140;2022-09-30T18:23:24;3.72;;;1.20;;
60847;SDS011;46681;47.696;9.140;2022-09-30T18:25:52;3.70;;;1.40;;
60847;SDS011;46681;47.696;9.140;2022-09-30T18:28:22;4.28;;;1.40;;
60847;SDS011;46681;47.696;9.140;2022-09-30T18:30:48;6.60;;;1.55;;
60847;SDS011;46681;47.696;9.140;2022-09-30T18:33:13;4.47;;;1.35;;
60847;SDS011;46681;47.696;9.140;2022-09-30T18:35:41;2.67;;;1.25;;
60847;SDS011;46681;47.696;9.140;2022-09-30T18:38:13;3.65;;;1.30;;
60847;SDS011;46681;47.696;9.140;2022-09-30T18:40:49;4.03;;;1.40;;
60847;SDS011;46681;47.696;9.140;2022-09-30T18:43:15;4.43;;;1.50;;
60847;SDS011;46681;47.696;9.140;2022-09-30T18:45:41;4.57;;;1.50;;
60847;SDS011;46681;47.696;9.140;2022-09-30T18:48:11;8.65;;;2.20;;
60847;SDS011;46681;47.696;9.140;2022-09-30T18:50:39;7.68;;;2.30;;
60847;SDS011;46681;47.696;9.140;2022-09-30T18:53:09;7.10;;;2.33;;
60847;SDS011;46681;47.696;9.140;2022-09-30T18:55:36;7.95;;;2.50;;
60847;SDS011;46681;47.696;9.140;2022-09-30T18:58:07;8.18;;;2.20;;
60847;SDS011;46681;47.696;9.140;2022-09-30T19:00:32;8.20;;;2.33;;
60847;SDS011;46681;47.696;9.140;2022-09-30T19:02:58;7.13;;;2.25;;
60847;SDS011;46681;47.696;9.140;2022-09-30T19:05:24;9.18;;;2.65;;
60847;SDS011;46681;47.696;9.140;2022-09-30T19:07:58;8.30;;;2.38;;
60847;SDS011;46681;47.696;9.140;2022-09-30T19:10:27;7.22;;;2.30;;
60847;SDS011;46681;47.696;9.140;2022-09-30T19:12:57;8.93;;;2.60;;
60847;SDS011;46681;47.696;9.140;2022-09-30T19:15:27;7.60;;;2.35;;
60847;SDS011;46681;47.696;9.140;2022-09-30T19:17:54;7.90;;;2.42;;
60847;SDS011;46681;47.696;9.140;2022-09-30T19:20:27;8.05;;;2.30;;